Time;durP1;ratioP1;P1;durP2;ratioP2;P2;SDS_P1;SDS_P2;PMS_P1;PMS_P2;Temp;Humidity;BMP_temperature;BMP_pressure;BME280_temperature;BME280_humidity;BME280_pressure;Samples;Min_cycle;Max_cycle;Signal;HPM_P1;HPM_P2
2021/12/20 00:00:13;;;;;;;3.03;2.10;;;7.00;99.90;;;;;;5002545;28;20595;-58
2021/12/20 00:02:41;;;;;;;2.67;2.00;;;7.00;99.90;;;;;;5005911;28;20169;-58
2021/12/20 00:05:08;;;;;;;3.13;2.05;;;6.90;99.90;;;;;;5013563;28;20054;-58
2021/12/20 00:07:34;;;;;;;2.88;2.08;;;6.90;99.90;;;;;;5002615;28;20089;-59
2021/12/20 00:10:03;;;;;;;3.00;1.77;;;6.90;99.90;;;;;;5002708;28;20144;-58
2021/12/20 00:12:29;;;;;;;3.03;2.08;;;6.90;99.90;;;;;;5002519;28;20155;-58
2021/12/20 00:14:56;;;;;;;2.40;1.67;;;7.00;99.90;;;;;;5003191;28;20505;-58
2021/12/20 00:17:23;;;;;;;2.15;1.60;;;7.00;99.90;;;;;;5019483;28;20148;-58
2021/12/20 00:19:50;;;;;;;3.00;2.05;;;7.00;99.90;;;;;;5021034;28;20053;-58
2021/12/20 00:22:16;;;;;;;2.13;1.55;;;7.00;99.90;;;;;;5018447;28;20160;-58
2021/12/20 00:24:43;;;;;;;3.20;2.10;;;7.00;99.90;;;;;;5005840;28;20143;-58
2021/12/20 00:27:12;;;;;;;2.58;1.73;;;7.00;99.90;;;;;;5004758;28;20541;-57
2021/12/20 00:29:38;;;;;;;2.78;1.92;;;7.00;99.90;;;;;;5019949;28;20089;-59
2021/12/20 00:32:06;;;;;;;2.22;1.77;;;7.00;99.90;;;;;;5019726;28;20152;-58
2021/12/20 00:34:33;;;;;;;2.30;1.70;;;6.90;99.90;;;;;;5010145;28;20609;-58
2021/12/20 00:37:06;;;;;;;2.10;1.73;;;7.00;99.90;;;;;;5001840;28;20466;-58
2021/12/20 00:42:18;;;;;;;2.35;1.65;;;7.00;99.90;;;;;;5016544;28;20836;-58
2021/12/20 00:44:44;;;;;;;2.30;1.70;;;6.90;99.90;;;;;;5004693;28;20089;-58
2021/12/20 00:47:11;;;;;;;2.03;1.60;;;6.90;99.90;;;;;;5003596;28;20052;-58
2021/12/20 00:49:38;;;;;;;2.28;1.33;;;6.90;99.90;;;;;;5011785;28;20125;-58
2021/12/20 00:52:05;;;;;;;2.88;1.60;;;6.90;99.90;;;;;;5007465;28;20038;-58
2021/12/20 00:54:32;;;;;;;4.38;1.90;;;6.90;99.90;;;;;;5019360;28;20077;-59
2021/12/20 00:56:59;;;;;;;2.80;1.60;;;6.90;99.90;;;;;;5000323;28;20120;-58
2021/12/20 00:59:25;;;;;;;2.00;1.40;;;6.90;99.90;;;;;;5002985;28;20124;-58
2021/12/20 01:01:52;;;;;;;1.98;1.60;;;6.90;99.90;;;;;;5002696;28;20568;-58
2021/12/20 01:04:19;;;;;;;2.25;1.42;;;6.90;99.90;;;;;;5009754;28;20141;-58
2021/12/20 01:06:46;;;;;;;2.40;1.25;;;6.90;99.90;;;;;;5003024;28;20111;-58
2021/12/20 01:09:12;;;;;;;2.33;1.40;;;6.90;99.90;;;;;;5003356;28;20140;-58
2021/12/20 01:11:41;;;;;;;2.13;1.83;;;7.00;99.90;;;;;;5000790;28;20129;-58
2021/12/20 01:14:08;;;;;;;3.17;1.35;;;7.00;99.90;;;;;;5004784;28;20137;-58
2021/12/20 01:16:35;;;;;;;2.45;1.70;;;6.90;99.90;;;;;;5002844;28;20163;-58
2021/12/20 01:19:02;;;;;;;1.73;1.25;;;6.90;99.90;;;;;;5003409;28;20081;-57
2021/12/20 01:21:30;;;;;;;2.55;1.65;;;6.90;99.90;;;;;;5002346;28;20080;-58
2021/12/20 01:23:56;;;;;;;2.35;1.67;;;6.90;99.90;;;;;;5009839;28;20057;-59
2021/12/20 01:26:23;;;;;;;3.55;1.55;;;7.00;99.90;;;;;;5008489;28;20072;-58
2021/12/20 01:28:50;;;;;;;2.30;1.52;;;6.90;99.90;;;;;;5020450;28;20100;-59
2021/12/20 01:31:17;;;;;;;1.63;1.33;;;7.00;99.90;;;;;;5021237;28;20128;-58
2021/12/20 01:33:43;;;;;;;1.85;1.38;;;7.00;99.90;;;;;;5012442;28;20081;-58
2021/12/20 01:36:10;;;;;;;1.50;1.23;;;7.00;99.90;;;;;;5004769;28;20129;-58
2021/12/20 01:38:37;;;;;;;2.45;1.55;;;7.00;99.90;;;;;;5002507;28;20129;-58
2021/12/20 01:41:04;;;;;;;2.05;1.60;;;6.90;99.90;;;;;;5002617;28;20137;-57
2021/12/20 01:43:31;;;;;;;2.88;1.67;;;6.90;99.90;;;;;;5001532;28;20045;-58
2021/12/20 01:45:59;;;;;;;2.13;1.48;;;6.90;99.90;;;;;;5005513;28;20074;-59
2021/12/20 01:48:26;;;;;;;1.70;1.33;;;7.00;99.90;;;;;;5019784;28;20128;-58
2021/12/20 01:51:19;;;;;;;2.55;1.73;;;6.90;99.90;;;;;;5020851;28;20049;-59
2021/12/20 01:53:46;;;;;;;2.33;1.57;;;6.90;99.90;;;;;;5014831;28;20675;-58
2021/12/20 01:56:13;;;;;;;2.13;1.60;;;6.90;99.90;;;;;;5004209;28;20137;-58
2021/12/20 01:58:39;;;;;;;1.83;1.30;;;6.90;99.90;;;;;;5001214;28;20128;-60
2021/12/20 02:03:36;;;;;;;2.63;1.67;;;7.00;99.90;;;;;;5007315;28;20133;-58
2021/12/20 02:06:06;;;;;;;2.13;1.58;;;7.00;99.90;;;;;;5005346;28;20155;-59
2021/12/20 02:08:33;;;;;;;2.05;1.50;;;7.00;99.90;;;;;;5016580;28;20339;-58
2021/12/20 02:11:03;;;;;;;1.63;1.30;;;7.00;99.90;;;;;;5018746;28;20592;-58
2021/12/20 02:13:30;;;;;;;2.50;1.48;;;7.00;99.90;;;;;;5013899;28;20138;-57
2021/12/20 02:15:57;;;;;;;2.00;1.20;;;7.00;99.90;;;;;;5020476;28;20076;-58
2021/12/20 02:18:24;;;;;;;1.40;1.13;;;7.00;99.90;;;;;;5020607;28;20691;-58
2021/12/20 02:20:51;;;;;;;2.20;1.27;;;7.00;99.90;;;;;;5018853;28;20084;-58
2021/12/20 02:23:18;;;;;;;1.55;1.25;;;7.00;99.90;;;;;;5013952;28;20085;-58
2021/12/20 02:25:45;;;;;;;2.13;1.45;;;7.00;99.90;;;;;;5006487;28;20056;-62
2021/12/20 02:28:14;;;;;;;2.35;1.10;;;7.00;99.90;;;;;;5016290;28;20490;-58
2021/12/20 02:38:48;;;;;;;1.95;1.30;;;7.00;99.90;;;;;;5019881;28;20573;-58
2021/12/20 02:41:18;;;;;;;1.25;0.88;;;7.00;99.90;;;;;;5019207;28;20061;-57
2021/12/20 02:43:53;;;;;;;1.58;1.02;;;7.00;99.90;;;;;;5010163;28;20092;-58
2021/12/20 02:49:31;;;;;;;1.75;0.95;;;7.10;99.90;;;;;;5019525;28;20132;-58
2021/12/20 02:52:08;;;;;;;1.85;1.10;;;7.10;99.90;;;;;;5017350;28;20509;-58
2021/12/20 02:54:35;;;;;;;1.20;0.90;;;7.10;99.90;;;;;;5005019;28;20125;-58
2021/12/20 02:57:02;;;;;;;0.88;0.70;;;7.10;99.90;;;;;;5001551;28;20067;-58
2021/12/20 02:59:29;;;;;;;1.70;1.30;;;7.10;99.90;;;;;;5003546;28;20439;-58
2021/12/20 03:01:59;;;;;;;1.42;0.80;;;7.00;99.90;;;;;;5002695;28;20144;-57
2021/12/20 03:04:26;;;;;;;2.33;1.17;;;7.10;99.90;;;;;;5009626;28;20712;-57
2021/12/20 03:06:57;;;;;;;1.33;0.90;;;7.00;99.90;;;;;;5001325;28;20141;-57
2021/12/20 03:09:29;;;;;;;1.58;1.00;;;7.00;99.90;;;;;;5003499;28;20080;-58
2021/12/20 03:11:58;;;;;;;1.33;0.85;;;7.00;99.90;;;;;;5000989;28;20161;-58
2021/12/20 03:14:31;;;;;;;1.55;0.88;;;6.90;99.90;;;;;;5007223;28;20058;-56
2021/12/20 03:16:58;;;;;;;1.27;0.77;;;6.90;99.90;;;;;;5002800;28;20081;-57
2021/12/20 03:19:25;;;;;;;1.95;0.93;;;6.90;99.90;;;;;;5003552;28;20209;-57
2021/12/20 03:21:52;;;;;;;2.05;1.00;;;6.90;99.90;;;;;;5006085;28;20145;-58
2021/12/20 03:24:19;;;;;;;1.02;0.85;;;6.90;99.90;;;;;;5011250;28;20128;-59
2021/12/20 03:26:45;;;;;;;1.88;1.00;;;6.90;99.90;;;;;;5008609;28;20137;-58
2021/12/20 03:29:12;;;;;;;2.75;1.30;;;6.80;99.90;;;;;;5025938;28;20180;-57
2021/12/20 03:31:39;;;;;;;1.10;0.82;;;6.90;99.90;;;;;;5021078;28;20125;-57
2021/12/20 03:34:06;;;;;;;1.27;0.73;;;6.80;99.90;;;;;;5016729;28;20049;-58
2021/12/20 03:36:33;;;;;;;1.55;0.93;;;6.80;99.90;;;;;;5006745;28;20140;-59
2021/12/20 03:39:00;;;;;;;2.63;0.90;;;6.80;99.90;;;;;;5022088;28;20124;-59
2021/12/20 03:41:28;;;;;;;1.80;0.80;;;6.80;99.90;;;;;;5024272;28;20143;-59
2021/12/20 03:43:54;;;;;;;1.85;1.10;;;6.80;99.90;;;;;;5013656;28;20081;-58
2021/12/20 03:46:21;;;;;;;2.20;0.60;;;6.80;99.90;;;;;;5006254;28;20117;-59
2021/12/20 03:48:48;;;;;;;0.55;0.55;;;6.80;99.90;;;;;;5025301;28;20160;-59
2021/12/20 03:51:15;;;;;;;1.27;0.82;;;6.80;99.90;;;;;;5024226;28;20085;-59
2021/12/20 03:53:41;;;;;;;1.98;0.85;;;6.90;99.90;;;;;;5016089;28;20077;-60
2021/12/20 03:56:08;;;;;;;1.20;0.70;;;6.80;99.90;;;;;;5006814;28;20089;-58
2021/12/20 03:58:36;;;;;;;1.58;0.80;;;6.80;99.90;;;;;;5005151;28;20137;-59
2021/12/20 04:01:04;;;;;;;1.52;0.77;;;6.80;99.90;;;;;;5006662;28;20125;-58
2021/12/20 04:03:34;;;;;;;0.82;0.57;;;6.80;99.90;;;;;;5010720;28;20136;-57
2021/12/20 04:06:08;;;;;;;1.90;0.90;;;6.90;99.90;;;;;;5006746;28;20093;-58
2021/12/20 04:08:35;;;;;;;1.73;1.15;;;6.80;99.90;;;;;;5021848;28;20088;-58
2021/12/20 04:11:02;;;;;;;0.80;0.50;;;6.80;99.90;;;;;;5020790;28;20449;-58
2021/12/20 04:13:29;;;;;;;1.48;0.60;;;6.80;99.90;;;;;;5017366;28;20061;-58
2021/12/20 04:15:56;;;;;;;1.63;0.85;;;6.80;99.90;;;;;;5005221;28;20473;-57
2021/12/20 04:18:23;;;;;;;1.80;0.95;;;6.90;99.90;;;;;;5006229;28;20149;-58
2021/12/20 04:20:50;;;;;;;1.65;0.90;;;6.80;99.90;;;;;;5008964;28;20124;-58
2021/12/20 04:23:16;;;;;;;1.63;1.05;;;6.70;99.90;;;;;;5008105;28;20125;-58
2021/12/20 04:25:43;;;;;;;3.15;1.20;;;6.70;99.90;;;;;;5006491;28;20165;-59
2021/12/20 04:28:10;;;;;;;1.55;1.08;;;6.70;99.90;;;;;;5020367;28;20132;-58
2021/12/20 04:30:37;;;;;;;0.98;0.75;;;6.70;99.90;;;;;;5024392;28;20664;-58
2021/12/20 04:33:04;;;;;;;1.30;0.80;;;6.70;99.90;;;;;;5018879;28;20442;-59
2021/12/20 04:35:30;;;;;;;1.35;0.95;;;6.70;99.90;;;;;;5004856;28;20041;-58
2021/12/20 04:37:59;;;;;;;1.90;1.02;;;6.70;99.90;;;;;;5024421;28;20465;-59
2021/12/20 04:40:26;;;;;;;1.20;1.00;;;6.70;99.90;;;;;;5024441;28;20641;-59
2021/12/20 04:43:01;;;;;;;2.67;1.10;;;6.70;99.90;;;;;;5020382;28;20528;-59
2021/12/20 04:45:28;;;;;;;1.85;1.20;;;6.70;99.90;;;;;;5005862;28;20129;-59
2021/12/20 04:47:55;;;;;;;1.00;0.90;;;6.70;99.90;;;;;;5005447;28;20107;-59
2021/12/20 04:50:24;;;;;;;1.70;1.17;;;6.70;99.90;;;;;;5004311;28;20059;-58
2021/12/20 04:52:52;;;;;;;1.83;1.15;;;6.70;99.90;;;;;;5009518;28;20085;-58
2021/12/20 04:55:18;;;;;;;3.45;1.38;;;6.70;99.90;;;;;;5006822;28;20133;-56
2021/12/20 04:57:45;;;;;;;1.83;1.20;;;6.70;99.90;;;;;;5003755;28;20074;-58
2021/12/20 05:00:14;;;;;;;2.05;1.27;;;6.70;99.90;;;;;;5005542;28;20479;-57
2021/12/20 05:02:41;;;;;;;2.00;1.30;;;6.80;99.90;;;;;;5007776;28;20610;-58
2021/12/20 05:05:09;;;;;;;1.48;1.10;;;6.80;99.90;;;;;;5006486;28;20050;-59
2021/12/20 05:07:38;;;;;;;2.78;1.38;;;6.80;99.90;;;;;;5003749;28;20429;-59
2021/12/20 05:10:12;;;;;;;2.35;1.48;;;6.80;99.90;;;;;;5005218;28;20133;-59
2021/12/20 05:12:39;;;;;;;2.13;1.60;;;6.80;99.90;;;;;;5018921;28;20128;-59
2021/12/20 05:15:07;;;;;;;2.55;1.52;;;6.80;99.90;;;;;;5020059;28;20413;-59
2021/12/20 05:17:35;;;;;;;1.65;1.48;;;6.80;99.90;;;;;;5021400;28;20056;-58
2021/12/20 05:20:03;;;;;;;1.88;1.38;;;6.80;99.90;;;;;;5022362;28;20115;-59
2021/12/20 05:22:30;;;;;;;1.88;1.40;;;6.80;99.90;;;;;;5023373;28;20076;-58
2021/12/20 05:24:57;;;;;;;2.22;1.63;;;6.80;99.90;;;;;;5007393;28;20117;-58
2021/12/20 05:27:24;;;;;;;1.92;1.27;;;6.80;99.90;;;;;;5012613;28;20458;-57
2021/12/20 05:29:51;;;;;;;2.08;1.30;;;6.70;99.90;;;;;;5021779;28;20199;-58
2021/12/20 05:32:18;;;;;;;1.98;1.38;;;6.70;99.90;;;;;;5023113;28;20037;-58
2021/12/20 05:34:44;;;;;;;1.95;1.23;;;6.70;99.90;;;;;;5008555;28;20103;-57
2021/12/20 05:37:13;;;;;;;2.35;1.40;;;6.70;99.90;;;;;;5004190;28;20056;-58
2021/12/20 05:39:40;;;;;;;1.85;1.10;;;6.70;99.90;;;;;;5004643;28;20082;-57
2021/12/20 05:42:07;;;;;;;1.75;1.17;;;6.70;99.90;;;;;;5002835;28;20129;-58
2021/12/20 05:44:35;;;;;;;2.20;1.52;;;6.70;99.90;;;;;;5004048;28;20171;-58
2021/12/20 05:47:02;;;;;;;1.50;1.40;;;6.60;99.90;;;;;;5004366;28;20096;-58
2021/12/20 05:49:31;;;;;;;1.70;1.40;;;6.60;99.90;;;;;;5004300;28;20049;-58
2021/12/20 05:52:03;;;;;;;1.85;1.38;;;6.70;99.90;;;;;;5004105;28;20780;-58
2021/12/20 05:54:30;;;;;;;2.30;1.55;;;6.60;99.90;;;;;;5007502;28;20539;-58
2021/12/20 05:56:57;;;;;;;2.50;1.42;;;6.60;99.90;;;;;;5006453;28;20213;-57
2021/12/20 05:59:24;;;;;;;2.28;1.48;;;6.70;99.90;;;;;;5003181;28;20082;-58
2021/12/20 06:01:51;;;;;;;3.13;1.45;;;6.70;99.90;;;;;;5003669;28;20152;-58
2021/12/20 06:04:17;;;;;;;1.83;1.42;;;6.70;99.90;;;;;;5007492;28;20133;-58
2021/12/20 06:06:44;;;;;;;1.90;1.38;;;6.70;99.90;;;;;;5001846;28;20500;-58
2021/12/20 06:09:11;;;;;;;2.75;1.45;;;6.70;99.90;;;;;;5002303;28;20046;-58
2021/12/20 06:11:38;;;;;;;2.33;1.70;;;6.70;99.90;;;;;;4999785;28;20173;-58
2021/12/20 06:14:04;;;;;;;1.55;1.20;;;6.70;99.90;;;;;;5010556;28;20100;-58
2021/12/20 06:16:31;;;;;;;2.03;1.42;;;6.70;99.90;;;;;;5016198;28;20049;-58
2021/12/20 06:18:58;;;;;;;2.63;1.30;;;6.70;99.90;;;;;;5019995;28;20220;-58
2021/12/20 06:21:25;;;;;;;1.52;1.20;;;6.70;99.90;;;;;;5021196;28;20151;-59
2021/12/20 06:23:52;;;;;;;2.63;1.30;;;6.70;99.90;;;;;;5022989;28;20131;-59
2021/12/20 06:26:23;;;;;;;1.58;1.20;;;6.70;99.90;;;;;;5019133;28;20628;-58
2021/12/20 06:28:50;;;;;;;1.02;0.80;;;6.80;99.90;;;;;;5021464;28;20148;-57
2021/12/20 06:31:21;;;;;;;2.03;1.23;;;6.80;99.90;;;;;;5021798;28;20057;-57
2021/12/20 06:33:47;;;;;;;1.90;1.13;;;6.80;99.90;;;;;;5021753;28;20626;-57
2021/12/20 06:36:15;;;;;;;2.25;1.00;;;6.80;99.90;;;;;;5022481;28;20059;-57
2021/12/20 06:38:45;;;;;;;1.85;1.02;;;6.80;99.90;;;;;;5024773;28;20107;-57
2021/12/20 06:44:53;;;;;;;1.35;1.05;;;6.70;99.90;;;;;;5021548;28;20056;-55
2021/12/20 06:47:19;;;;;;;1.73;0.82;;;6.70;99.90;;;;;;5023623;28;20136;-58
2021/12/20 06:49:46;;;;;;;2.50;1.00;;;6.70;99.90;;;;;;5023674;28;20069;-58
2021/12/20 06:52:13;;;;;;;1.05;0.80;;;6.70;99.90;;;;;;5023751;28;20611;-58
2021/12/20 06:54:40;;;;;;;1.45;0.70;;;6.70;99.90;;;;;;5023671;28;20136;-58
2021/12/20 06:57:06;;;;;;;3.03;1.00;;;6.80;99.90;;;;;;5022238;28;20183;-58
2021/12/20 06:59:33;;;;;;;2.38;1.50;;;6.80;99.90;;;;;;5022724;28;20553;-57
2021/12/20 07:02:00;;;;;;;1.60;1.02;;;6.70;99.90;;;;;;5018079;28;20145;-58
2021/12/20 07:04:27;;;;;;;2.17;1.27;;;6.70;99.90;;;;;;5021135;28;20613;-57
2021/12/20 07:06:53;;;;;;;2.55;1.50;;;6.70;99.90;;;;;;5017590;28;20099;-59
2021/12/20 07:09:20;;;;;;;2.55;1.48;;;6.70;99.90;;;;;;5018681;28;20061;-58
2021/12/20 07:11:47;;;;;;;2.20;1.40;;;6.80;99.90;;;;;;5003885;28;20141;-59
2021/12/20 07:14:14;;;;;;;1.83;1.30;;;6.70;99.90;;;;;;5014910;28;20136;-58
2021/12/20 07:16:41;;;;;;;2.28;1.60;;;6.70;99.90;;;;;;5017228;28;20529;-57
2021/12/20 07:19:08;;;;;;;2.33;1.30;;;6.70;99.90;;;;;;5011466;28;20081;-57
2021/12/20 07:21:35;;;;;;;2.30;1.10;;;6.70;99.90;;;;;;5010654;28;20240;-57
2021/12/20 07:24:01;;;;;;;2.30;1.60;;;6.80;99.90;;;;;;5017959;28;20130;-58
2021/12/20 07:26:29;;;;;;;2.22;1.52;;;6.80;99.90;;;;;;4998976;28;20069;-53
2021/12/20 07:28:56;;;;;;;2.08;1.50;;;6.80;99.90;;;;;;5005432;28;20142;-53
2021/12/20 07:31:23;;;;;;;2.10;1.30;;;6.80;99.90;;;;;;5010937;28;20581;-58
2021/12/20 07:33:50;;;;;;;1.75;1.17;;;6.80;99.90;;;;;;5008615;28;20152;-58
2021/12/20 07:36:19;;;;;;;1.92;1.00;;;6.80;99.90;;;;;;5017967;28;20168;-55
2021/12/20 07:38:46;;;;;;;1.63;1.17;;;6.80;99.90;;;;;;5004828;28;20085;-59
2021/12/20 07:41:13;;;;;;;1.95;1.38;;;6.80;99.90;;;;;;4998519;28;20046;-57
2021/12/20 07:43:39;;;;;;;2.85;1.70;;;6.90;99.90;;;;;;5003687;28;20064;-58
2021/12/20 07:46:06;;;;;;;1.85;1.02;;;6.90;99.90;;;;;;5017873;28;20152;-58
2021/12/20 07:48:33;;;;;;;1.38;1.05;;;6.80;99.90;;;;;;5012613;28;20071;-57
2021/12/20 07:51:01;;;;;;;2.00;0.85;;;6.80;99.90;;;;;;5014920;28;20111;-58
2021/12/20 07:53:28;;;;;;;1.70;1.10;;;6.80;99.90;;;;;;5002038;28;20076;-58
2021/12/20 07:55:55;;;;;;;2.45;1.50;;;6.80;99.90;;;;;;5001993;28;20127;-59
2021/12/20 07:58:21;;;;;;;1.77;1.50;;;6.80;99.90;;;;;;5007996;28;20077;-58
2021/12/20 08:00:48;;;;;;;1.40;1.13;;;6.80;99.90;;;;;;5009872;28;20046;-60
2021/12/20 08:03:15;;;;;;;2.67;1.30;;;6.90;99.90;;;;;;5017350;28;20054;-58
2021/12/20 08:05:42;;;;;;;1.40;1.30;;;6.90;99.90;;;;;;5003711;28;20053;-59
2021/12/20 08:08:09;;;;;;;2.20;1.50;;;6.90;99.90;;;;;;5020412;28;20702;-59
2021/12/20 08:10:36;;;;;;;2.10;1.40;;;6.90;99.90;;;;;;5016078;28;20081;-59
2021/12/20 08:13:03;;;;;;;1.60;1.27;;;6.90;99.90;;;;;;5006476;28;20076;-58
2021/12/20 08:15:30;;;;;;;2.60;1.65;;;6.80;99.90;;;;;;5013732;28;20045;-58
2021/12/20 08:17:57;;;;;;;2.33;1.77;;;6.80;99.90;;;;;;5003221;28;20054;-55
2021/12/20 08:20:24;;;;;;;1.88;1.60;;;6.80;99.90;;;;;;5010639;28;20575;-58
2021/12/20 08:22:51;;;;;;;2.03;1.80;;;6.80;99.90;;;;;;5005865;28;20038;-56
2021/12/20 08:25:18;;;;;;;3.00;2.38;;;6.80;99.90;;;;;;5018998;28;20146;-57
2021/12/20 08:27:45;;;;;;;2.83;2.53;;;6.80;99.90;;;;;;5002543;28;20057;-58
2021/12/20 08:30:12;;;;;;;3.25;1.90;;;6.70;99.90;;;;;;5002779;28;20089;-58
2021/12/20 08:32:39;;;;;;;2.50;1.90;;;6.80;99.90;;;;;;5017037;28;20156;-58
2021/12/20 08:35:07;;;;;;;2.63;1.83;;;6.70;99.90;;;;;;5013853;28;20055;-57
2021/12/20 08:37:34;;;;;;;2.65;2.15;;;6.80;99.90;;;;;;5009250;28;20155;-57
2021/12/20 08:40:02;;;;;;;2.88;1.90;;;6.80;99.90;;;;;;5019986;28;20602;-57
2021/12/20 08:42:31;;;;;;;2.35;1.70;;;6.80;99.90;;;;;;5018511;28;20158;-58
2021/12/20 08:44:58;;;;;;;2.50;1.88;;;6.90;99.90;;;;;;5018439;28;20155;-57
2021/12/20 08:47:25;;;;;;;2.72;1.90;;;6.90;99.90;;;;;;5018957;28;20115;-57
2021/12/20 08:49:52;;;;;;;1.90;1.20;;;6.90;99.90;;;;;;5014862;28;20478;-57
2021/12/20 08:52:19;;;;;;;2.00;1.58;;;6.90;99.90;;;;;;5006896;28;20484;-57
2021/12/20 08:54:45;;;;;;;2.15;1.63;;;6.90;99.90;;;;;;5018573;28;20517;-57
2021/12/20 08:57:12;;;;;;;1.80;1.40;;;6.90;99.90;;;;;;5020147;28;20049;-59
2021/12/20 08:59:39;;;;;;;1.55;1.20;;;7.00;99.90;;;;;;5011670;28;20085;-57
2021/12/20 09:02:07;;;;;;;2.42;1.30;;;7.00;99.90;;;;;;5011625;28;20520;-57
2021/12/20 09:04:35;;;;;;;2.13;1.10;;;7.10;99.90;;;;;;5015894;28;20528;-57
2021/12/20 09:07:02;;;;;;;1.50;1.25;;;7.10;99.90;;;;;;5016231;28;20049;-58
2021/12/20 09:09:35;;;;;;;1.48;1.23;;;7.10;99.90;;;;;;5014534;28;20445;-56
2021/12/20 09:12:04;;;;;;;1.25;0.77;;;7.10;99.90;;;;;;5012417;28;20089;-58
2021/12/20 09:14:33;;;;;;;1.00;0.82;;;7.10;99.90;;;;;;5017726;28;20049;-57
2021/12/20 09:17:01;;;;;;;2.55;1.10;;;7.20;99.90;;;;;;5016039;28;20056;-58
2021/12/20 09:19:27;;;;;;;1.00;0.90;;;7.20;99.90;;;;;;5014098;28;20580;-57
2021/12/20 09:21:54;;;;;;;1.23;1.00;;;7.20;99.90;;;;;;5014296;28;20049;-57
2021/12/20 09:24:22;;;;;;;1.30;0.77;;;7.30;99.90;;;;;;5015029;28;20065;-57
2021/12/20 09:26:49;;;;;;;1.52;0.90;;;7.30;99.90;;;;;;5009542;28;20050;-56
2021/12/20 09:29:16;;;;;;;1.40;0.90;;;7.30;99.90;;;;;;5013529;28;20077;-55
2021/12/20 09:31:44;;;;;;;1.63;0.88;;;7.30;99.90;;;;;;5015598;28;20124;-56
2021/12/20 09:34:11;;;;;;;1.58;0.93;;;7.40;99.90;;;;;;5017117;28;20548;-56
2021/12/20 09:36:38;;;;;;;0.85;0.65;;;7.30;99.90;;;;;;5012504;28;20345;-57
2021/12/20 09:39:10;;;;;;;1.20;0.77;;;7.30;99.90;;;;;;5016127;28;20822;-57
2021/12/20 09:44:09;;;;;;;2.17;1.00;;;7.20;99.90;;;;;;5016531;28;20650;-53
2021/12/20 09:46:36;;;;;;;1.48;0.60;;;7.20;99.90;;;;;;5013833;28;20107;-56
2021/12/20 09:49:03;;;;;;;2.30;0.43;;;7.20;99.90;;;;;;5015643;28;20551;-56
2021/12/20 09:51:30;;;;;;;1.77;0.75;;;7.10;99.90;;;;;;5014014;28;20434;-57
2021/12/20 09:53:56;;;;;;;2.53;0.82;;;7.20;99.90;;;;;;5015297;28;20057;-57
2021/12/20 09:56:25;;;;;;;2.28;0.90;;;7.20;99.90;;;;;;5015899;28;20088;-56
2021/12/20 09:58:53;;;;;;;1.58;0.80;;;7.30;99.90;;;;;;5016898;28;20099;-51
2021/12/20 10:01:21;;;;;;;1.20;0.60;;;7.30;99.90;;;;;;5015392;28;20041;-55
2021/12/20 10:03:48;;;;;;;1.08;0.57;;;7.40;99.90;;;;;;5015087;28;20038;-54
2021/12/20 10:06:15;;;;;;;1.80;0.63;;;7.40;99.90;;;;;;5016222;28;20513;-56
2021/12/20 10:08:56;;;;;;;2.45;0.68;;;7.40;99.90;;;;;;5011830;28;20050;-57
2021/12/20 10:11:29;;;;;;;0.63;0.50;;;7.50;99.90;;;;;;5011016;28;20093;-57
2021/12/20 10:14:03;;;;;;;2.17;0.70;;;7.50;99.90;;;;;;5006855;28;20050;-55
2021/12/20 10:16:30;;;;;;;2.22;1.13;;;7.60;99.90;;;;;;5009596;28;20155;-56
2021/12/20 10:18:59;;;;;;;2.85;1.45;;;7.60;99.90;;;;;;5011332;28;20643;-58
2021/12/20 10:21:40;;;;;;;2.95;1.70;;;7.60;99.90;;;;;;5004108;28;20089;-56
2021/12/20 10:24:07;;;;;;;1.88;1.30;;;7.70;99.90;;;;;;5008744;28;20053;-55
2021/12/20 10:26:41;;;;;;;1.25;1.00;;;7.70;99.90;;;;;;5005978;28;20053;-55
2021/12/20 10:29:18;;;;;;;2.83;1.40;;;7.80;99.90;;;;;;5010206;28;20056;-56
2021/12/20 10:31:45;;;;;;;2.03;1.05;;;7.80;99.90;;;;;;5013034;28;20596;-56
2021/12/20 10:34:13;;;;;;;2.33;1.20;;;7.90;99.90;;;;;;5010761;28;20079;-57
2021/12/20 10:36:53;;;;;;;1.65;0.82;;;7.90;99.90;;;;;;5012460;28;20052;-57
2021/12/20 10:39:34;;;;;;;1.58;0.57;;;8.00;99.90;;;;;;5015439;28;20103;-57
2021/12/20 10:42:23;;;;;;;2.20;0.80;;;8.10;99.90;;;;;;5010212;28;20589;-58
2021/12/20 10:45:09;;;;;;;0.85;0.45;;;8.10;99.90;;;;;;5013518;28;20096;-57
2021/12/20 10:47:36;;;;;;;3.30;0.90;;;8.20;99.90;;;;;;5010492;28;20604;-55
2021/12/20 10:50:45;;;;;;;1.65;0.90;;;8.30;99.90;;;;;;5012782;28;20145;-57
2021/12/20 10:53:24;;;;;;;1.88;0.70;;;8.30;99.90;;;;;;5019413;28;20049;-56
2021/12/20 10:55:52;;;;;;;2.22;0.70;;;8.40;99.90;;;;;;5010196;28;20045;-56
2021/12/20 10:58:28;;;;;;;1.58;0.82;;;8.40;99.90;;;;;;5009934;28;20076;-57
2021/12/20 11:02:50;;;;;;;4.55;0.82;;;8.40;99.90;;;;;;5013562;28;20552;-54
2021/12/20 11:04:01;;;;;;;1.40;0.85;;;8.40;99.90;;;;;;5012722;28;20045;-53
2021/12/20 11:09:18;;;;;;;2.60;1.20;;;8.40;99.90;;;;;;5011831;28;20057;-54
2021/12/20 11:11:57;;;;;;;2.67;1.00;;;8.50;99.90;;;;;;5012490;28;20045;-52
2021/12/20 11:14:31;;;;;;;2.45;1.00;;;8.50;99.90;;;;;;5009690;28;20099;-53
2021/12/20 11:16:59;;;;;;;2.70;1.17;;;8.60;99.90;;;;;;5010646;28;20153;-54
2021/12/20 11:19:29;;;;;;;2.70;1.10;;;8.60;99.90;;;;;;5010410;28;20041;-52
2021/12/20 11:21:58;;;;;;;2.75;1.92;;;8.70;99.90;;;;;;5010158;28;20096;-53
2021/12/20 11:24:30;;;;;;;5.00;1.30;;;8.70;99.90;;;;;;5012201;28;20135;-53
2021/12/20 11:26:58;;;;;;;3.15;1.38;;;8.70;99.90;;;;;;5006629;28;20042;-53
2021/12/20 11:29:25;;;;;;;3.75;1.20;;;8.70;99.90;;;;;;5006050;28;20080;-54
2021/12/20 11:31:52;;;;;;;3.83;1.13;;;8.70;99.90;;;;;;5007011;28;20100;-54
2021/12/20 11:34:19;;;;;;;4.25;1.27;;;8.70;99.90;;;;;;5009061;28;20053;-55
2021/12/20 11:36:45;;;;;;;4.43;1.13;;;8.80;99.90;;;;;;5006200;28;20839;-54
2021/12/20 11:39:12;;;;;;;5.72;1.15;;;8.80;99.90;;;;;;5006786;28;20107;-56
2021/12/20 11:41:39;;;;;;;2.83;1.23;;;8.80;99.90;;;;;;5008010;28;20050;-55
2021/12/20 11:44:07;;;;;;;5.43;1.25;;;8.80;99.90;;;;;;5012386;28;20152;-55
2021/12/20 11:46:45;;;;;;;7.03;1.67;;;8.90;99.90;;;;;;5013885;28;20135;-52
2021/12/20 11:49:20;;;;;;;3.08;1.08;;;9.00;99.90;;;;;;5012477;28;20045;-54
2021/12/20 11:52:15;;;;;;;3.08;1.17;;;9.10;99.90;;;;;;5009897;28;20067;-54
2021/12/20 11:54:49;;;;;;;4.03;1.10;;;9.10;99.90;;;;;;5012945;28;20156;-54
2021/12/20 11:57:33;;;;;;;3.88;1.60;;;9.10;99.90;;;;;;5009550;28;20077;-55
2021/12/20 12:00:10;;;;;;;1.70;0.95;;;9.20;99.90;;;;;;5014087;28;20777;-57
2021/12/20 12:02:43;;;;;;;3.63;1.23;;;9.30;99.90;;;;;;5011569;28;20143;-56
2021/12/20 12:05:11;;;;;;;2.30;1.10;;;9.40;99.90;;;;;;5011946;28;20053;-54
2021/12/20 12:07:38;;;;;;;2.85;0.95;;;9.30;99.90;;;;;;5012602;28;20054;-57
2021/12/20 12:10:16;;;;;;;3.47;1.23;;;9.40;99.90;;;;;;5011299;28;20049;-57
2021/12/20 12:12:45;;;;;;;2.85;1.13;;;9.30;99.90;;;;;;5008148;28;20089;-56
2021/12/20 12:15:32;;;;;;;2.30;1.20;;;9.30;99.90;;;;;;5015666;28;20213;-56
2021/12/20 12:18:02;;;;;;;2.95;1.30;;;9.30;99.90;;;;;;5011874;28;20147;-56
2021/12/20 12:20:47;;;;;;;4.05;1.45;;;9.30;99.90;;;;;;5014249;28;20085;-54
2021/12/20 12:23:30;;;;;;;4.90;1.50;;;9.20;99.90;;;;;;5036291;28;20045;-56
2021/12/20 12:26:02;;;;;;;5.15;1.50;;;9.20;99.90;;;;;;5011931;28;20092;-58
2021/12/20 12:28:55;;;;;;;5.30;1.30;;;9.20;99.90;;;;;;5017834;28;20048;-52
2021/12/20 12:31:22;;;;;;;4.53;1.20;;;9.20;99.90;;;;;;5017701;28;20492;-59
2021/12/20 12:34:08;;;;;;;3.45;1.25;;;9.10;99.90;;;;;;5014148;28;20072;-56
2021/12/20 12:36:40;;;;;;;5.50;1.40;;;9.10;99.90;;;;;;5010559;28;20080;-56
2021/12/20 12:39:28;;;;;;;7.75;1.85;;;9.10;99.90;;;;;;5010114;28;20505;-53
2021/12/20 12:41:59;;;;;;;4.50;1.60;;;9.10;99.90;;;;;;5015367;28;20859;-57
2021/12/20 12:44:30;;;;;;;3.60;1.33;;;9.10;99.90;;;;;;5020851;28;20126;-56
2021/12/20 12:47:03;;;;;;;4.35;1.58;;;9.20;99.90;;;;;;5015535;28;20482;-54
2021/12/20 12:49:31;;;;;;;3.80;1.52;;;9.30;99.90;;;;;;5013285;28;20050;-57
2021/12/20 12:52:05;;;;;;;7.13;1.90;;;9.30;99.90;;;;;;5009523;28;20101;-57
2021/12/20 12:55:03;;;;;;;5.65;1.63;;;9.20;99.90;;;;;;5018299;28;20053;-57
2021/12/20 12:57:35;;;;;;;3.15;1.10;;;9.30;99.90;;;;;;5014216;28;20048;-57
2021/12/20 13:00:14;;;;;;;2.95;1.30;;;9.30;99.90;;;;;;5017479;28;20053;-57
2021/12/20 13:02:43;;;;;;;6.75;1.98;;;9.20;99.90;;;;;;5014797;28;20050;-56
2021/12/20 13:05:19;;;;;;;3.10;1.50;;;9.20;99.90;;;;;;5013839;28;20050;-56
2021/12/20 13:07:51;;;;;;;7.60;1.15;;;9.20;99.90;;;;;;5015179;28;20065;-57
2021/12/20 13:10:38;;;;;;;5.28;1.70;;;9.20;99.90;;;;;;5013441;28;20057;-57
2021/12/20 13:15:59;;;;;;;4.22;1.30;;;9.30;99.90;;;;;;5006289;28;20046;-58
2021/12/20 13:23:32;;;;;;;4.30;1.80;;;9.20;99.90;;;;;;5012254;28;20050;-56
2021/12/20 13:26:05;;;;;;;3.42;1.30;;;9.10;99.90;;;;;;5004029;28;20154;-57
2021/12/20 13:28:36;;;;;;;4.90;1.70;;;9.10;99.90;;;;;;5004251;28;20506;-56
2021/12/20 13:31:08;;;;;;;5.75;1.65;;;9.10;99.90;;;;;;5013100;28;20064;-56
2021/12/20 13:33:37;;;;;;;5.20;1.65;;;9.10;99.90;;;;;;5010087;28;20099;-57
2021/12/20 13:36:09;;;;;;;3.70;1.48;;;9.10;99.90;;;;;;5012055;28;20049;-56
2021/12/20 13:38:37;;;;;;;5.45;1.20;;;9.10;99.90;;;;;;5009725;28;20041;-57
2021/12/20 13:41:08;;;;;;;3.22;1.25;;;9.10;99.90;;;;;;5009537;28;20054;-58